West Chicago, Illinois
Current Conditions -  °F | °C
As of 10:52 PM on Friday 28 Nov 2014 (Local Time) from KDPA Reporting Station
Clear Clear  
Wind Chill: 25°   Ceiling: Unl
Heat Index: 33°   Visibility: 10mi
Dew Point: 29°   Wind: 9mph
Humidity: 85%   Direction: 170°S
Pressure: 29.87"   Gusts: NA
Location:  41.88°N, 88.2°W
Report Text: KDPA 290452Z 17008KT 10SM CLR 01/M02 A2987 RMK AO2 SLP125 T00061017
Loading
Personal Weather Stations






























Interactive Weather Map New forecast layout! Learn more

10-Day Weather Forecast

Advertisements
Track Severe Weather on mobile